Time;durP1;ratioP1;P1;durP2;ratioP2;P2;SDS_P1;SDS_P2;PMS_P1;PMS_P2;Temp;Humidity;BMP_temperature;BMP_pressure;BME280_temperature;BME280_humidity;BME280_pressure;Samples;Min_cycle;Max_cycle;Signal;HPM_P1;HPM_P2
2022/05/29 00:01:39;;;;;;;14.80;4.22;;;;;;;;;;5119832;27;20496;-43
2022/05/29 00:04:04;;;;;;;5.60;2.60;;;;;;;;;;5119864;27;20035;-44
2022/05/29 00:06:33;;;;;;;3.83;2.25;;;;;;;;;;5123562;27;20061;-44
2022/05/29 00:08:59;;;;;;;12.32;2.60;;;;;;;;;;5123601;27;20039;-47
2022/05/29 00:11:25;;;;;;;29.25;3.63;;;;;;;;;;5113616;27;20433;-45
2022/05/29 00:13:50;;;;;;;13.60;3.15;;;;;;;;;;5118806;27;20056;-46
2022/05/29 00:16:16;;;;;;;9.07;1.95;;;;;;;;;;5116437;27;20065;-46
2022/05/29 00:18:43;;;;;;;9.52;2.65;;;;;;;;;;5116550;27;20075;-45
2022/05/29 00:21:08;;;;;;;5.93;1.52;;;;;;;;;;5123925;27;20051;-48
2022/05/29 00:23:39;;;;;;;6.32;1.60;;;;;;;;;;5115956;27;20031;-44
2022/05/29 00:26:04;;;;;;;;;;;;;;;;;;5121225;27;20039;-41
2022/05/29 00:28:30;;;;;;;6.60;1.73;;;;;;;;;;5119800;27;19915;-44
2022/05/29 00:30:55;;;;;;;4.15;2.67;;;;;;;;;;5110617;27;20442;-45
2022/05/29 00:33:20;;;;;;;3.65;2.13;;;;;;;;;;5107877;27;20451;-44
2022/05/29 00:35:46;;;;;;;4.55;2.78;;;;;;;;;;5116047;27;20093;-46
2022/05/29 00:38:12;;;;;;;10.05;3.25;;;;;;;;;;5116694;27;20048;-44
2022/05/29 00:40:46;;;;;;;9.82;2.42;;;;;;;;;;5113442;27;20067;-43
2022/05/29 00:43:12;;;;;;;3.58;2.63;;;;;;;;;;5104983;27;20105;-49
2022/05/29 00:45:43;;;;;;;18.45;2.55;;;;;;;;;;5115220;27;20701;-47
2022/05/29 00:48:12;;;;;;;10.57;3.08;;;;;;;;;;5121978;27;20047;-42
2022/05/29 00:50:38;;;;;;;5.28;2.17;;;;;;;;;;5120079;27;20219;-48
2022/05/29 00:53:03;;;;;;;4.40;2.17;;;;;;;;;;5103254;27;20157;-46
2022/05/29 00:55:31;;;;;;;5.53;2.85;;;;;;;;;;5113586;27;20518;-45
2022/05/29 00:58:01;;;;;;;6.72;1.60;;;;;;;;;;5121084;27;20108;-47
2022/05/29 01:00:28;;;;;;;2.45;1.50;;;;;;;;;;5116532;27;20107;-49
2022/05/29 01:02:54;;;;;;;11.93;2.15;;;;;;;;;;5112489;27;20079;-45
2022/05/29 01:05:21;;;;;;;3.85;2.42;;;;;;;;;;5111450;27;20565;-45
2022/05/29 01:07:51;;;;;;;5.00;1.67;;;;;;;;;;5123195;27;20058;-43
2022/05/29 01:10:17;;;;;;;5.28;2.08;;;;;;;;;;5121211;27;20043;-45
2022/05/29 01:13:00;;;;;;;2.78;2.17;;;;;;;;;;5121707;27;20168;-42
2022/05/29 01:15:38;;;;;;;4.03;2.03;;;;;;;;;;5114435;27;20032;-42
2022/05/29 01:18:10;;;;;;;5.63;1.55;;;;;;;;;;5121915;27;20593;-43
2022/05/29 01:20:44;;;;;;;8.60;2.30;;;;;;;;;;5121718;27;20039;-44
2022/05/29 01:23:13;;;;;;;18.58;2.70;;;;;;;;;;5119198;27;20133;-48
2022/05/29 01:25:38;;;;;;;2.53;1.63;;;;;;;;;;5122061;27;20525;-44
2022/05/29 01:28:23;;;;;;;7.50;1.63;;;;;;;;;;5119066;27;20119;-42
2022/05/29 01:30:51;;;;;;;8.93;3.17;;;;;;;;;;5121656;27;20484;-47
2022/05/29 01:33:28;;;;;;;3.55;2.33;;;;;;;;;;5122571;27;20054;-43
2022/05/29 01:35:53;;;;;;;4.72;2.13;;;;;;;;;;5118120;27;20047;-46
2022/05/29 01:38:25;;;;;;;5.18;2.83;;;;;;;;;;5119805;27;20794;-43
2022/05/29 01:40:58;;;;;;;4.07;1.90;;;;;;;;;;5123165;27;20050;-44
2022/05/29 01:43:44;;;;;;;10.93;2.17;;;;;;;;;;5118728;27;20074;-48
2022/05/29 01:46:22;;;;;;;5.05;2.25;;;;;;;;;;5120739;27;20046;-48
2022/05/29 01:48:56;;;;;;;4.75;3.03;;;;;;;;;;5116652;27;20085;-50
2022/05/29 01:51:26;;;;;;;8.80;2.65;;;;;;;;;;5122169;27;20134;-46
2022/05/29 01:54:04;;;;;;;6.07;2.08;;;;;;;;;;5116981;27;20039;-46
2022/05/29 01:56:31;;;;;;;4.00;1.38;;;;;;;;;;5119472;27;20069;-45
2022/05/29 01:59:09;;;;;;;6.68;2.78;;;;;;;;;;5121255;27;20040;-44
2022/05/29 02:01:36;;;;;;;9.90;2.60;;;;;;;;;;5118461;27;21078;-44
2022/05/29 02:04:03;;;;;;;15.55;2.55;;;;;;;;;;5121076;27;20039;-43
2022/05/29 02:07:47;;;;;;;3.85;1.42;;;;;;;;;;5117701;27;20104;-41
2022/05/29 02:09:21;;;;;;;3.38;2.13;;;;;;;;;;5122595;27;20036;-44
2022/05/29 02:11:50;;;;;;;2.95;1.65;;;;;;;;;;5120576;27;20044;-44
2022/05/29 02:14:19;;;;;;;9.02;2.42;;;;;;;;;;5121622;27;20528;-48
2022/05/29 02:16:55;;;;;;;3.53;1.63;;;;;;;;;;5117513;27;20052;-50
2022/05/29 02:19:24;;;;;;;5.32;2.45;;;;;;;;;;5117360;27;20050;-46
2022/05/29 02:21:49;;;;;;;3.60;2.42;;;;;;;;;;5120978;27;20047;-43
2022/05/29 02:24:16;;;;;;;2.70;1.65;;;;;;;;;;5120136;27;20092;-41
2022/05/29 02:26:50;;;;;;;3.60;1.77;;;;;;;;;;5118213;27;20177;-46
2022/05/29 02:29:16;;;;;;;15.05;2.65;;;;;;;;;;5119859;27;20130;-44
2022/05/29 02:31:51;;;;;;;3.55;2.45;;;;;;;;;;5119347;27;20567;-45
2022/05/29 02:34:16;;;;;;;3.15;1.80;;;;;;;;;;5113409;27;20039;-42
2022/05/29 02:36:45;;;;;;;7.90;2.00;;;;;;;;;;5120674;27;20077;-42
2022/05/29 02:39:29;;;;;;;16.75;2.75;;;;;;;;;;5117587;27;20051;-46
2022/05/29 02:42:08;;;;;;;15.00;2.58;;;;;;;;;;5117230;27;20111;-48
2022/05/29 02:44:40;;;;;;;5.97;1.50;;;;;;;;;;5110313;27;20039;-43
2022/05/29 02:47:26;;;;;;;11.23;3.58;;;;;;;;;;5118340;27;20031;-45
2022/05/29 02:49:54;;;;;;;3.05;1.80;;;;;;;;;;5103878;27;20035;-45
2022/05/29 02:52:21;;;;;;;8.00;2.28;;;;;;;;;;5116790;27;20039;-43
2022/05/29 02:54:46;;;;;;;5.28;2.13;;;;;;;;;;5120017;27;20126;-45
2022/05/29 02:57:11;;;;;;;3.22;1.88;;;;;;;;;;5120984;27;20114;-46
2022/05/29 02:59:37;;;;;;;1.50;1.15;;;;;;;;;;5119370;27;20369;-42
2022/05/29 03:02:15;;;;;;;8.88;3.05;;;;;;;;;;5120658;27;20047;-45
2022/05/29 03:04:43;;;;;;;9.50;3.67;;;;;;;;;;5118468;27;20518;-44
2022/05/29 03:07:17;;;;;;;4.05;2.03;;;;;;;;;;5119179;27;20523;-44
2022/05/29 03:09:55;;;;;;;3.13;1.40;;;;;;;;;;5119504;27;20047;-47
2022/05/29 03:12:20;;;;;;;9.38;2.85;;;;;;;;;;5106210;27;20088;-46
2022/05/29 03:14:48;;;;;;;14.65;2.50;;;;;;;;;;5113722;27;20044;-50
2022/05/29 03:17:19;;;;;;;3.50;1.70;;;;;;;;;;5118640;27;20043;-44
2022/05/29 03:19:44;;;;;;;8.07;2.88;;;;;;;;;;5120593;27;20088;-44
2022/05/29 03:22:16;;;;;;;2.63;1.65;;;;;;;;;;5115840;27;20054;-45
2022/05/29 03:24:46;;;;;;;14.18;2.13;;;;;;;;;;5118182;28;20500;-48
2022/05/29 03:27:14;;;;;;;2.33;1.73;;;;;;;;;;5112174;27;20031;-45
2022/05/29 03:29:51;;;;;;;9.20;3.60;;;;;;;;;;5107218;28;20313;-46
2022/05/29 03:32:16;;;;;;;4.85;2.65;;;;;;;;;;5120155;28;20110;-47
2022/05/29 03:34:42;;;;;;;4.97;2.67;;;;;;;;;;5121014;28;20084;-43
2022/05/29 03:37:07;;;;;;;4.32;1.65;;;;;;;;;;5115980;28;20453;-46
2022/05/29 03:39:33;;;;;;;4.35;2.58;;;;;;;;;;5116759;27;20507;-47
2022/05/29 03:41:58;;;;;;;5.45;2.05;;;;;;;;;;5120067;28;20043;-45
2022/05/29 03:44:24;;;;;;;4.07;2.42;;;;;;;;;;5118267;28;20032;-44
2022/05/29 03:46:49;;;;;;;3.08;1.77;;;;;;;;;;5118825;28;20062;-43
2022/05/29 03:49:15;;;;;;;6.65;2.30;;;;;;;;;;5120070;28;20601;-47
2022/05/29 03:51:41;;;;;;;7.35;2.03;;;;;;;;;;5118672;28;20049;-47
2022/05/29 03:54:07;;;;;;;5.75;2.15;;;;;;;;;;5112135;27;20043;-43
2022/05/29 03:56:32;;;;;;;9.20;2.85;;;;;;;;;;5109187;27;20051;-45
2022/05/29 03:58:58;;;;;;;5.30;2.22;;;;;;;;;;5101881;28;20111;-47
2022/05/29 04:01:23;;;;;;;3.13;2.40;;;;;;;;;;5106912;28;20047;-46
2022/05/29 04:03:49;;;;;;;3.90;2.63;;;;;;;;;;5109915;28;20086;-46
2022/05/29 04:06:15;;;;;;;5.53;2.08;;;;;;;;;;5105016;27;20051;-46
2022/05/29 04:14:08;;;;;;;4.75;2.17;;;;;;;;;;5114978;27;20162;-43
2022/05/29 04:16:34;;;;;;;7.95;1.77;;;;;;;;;;5117889;27;20047;-48
2022/05/29 04:18:59;;;;;;;3.10;1.63;;;;;;;;;;5121334;27;20062;-45
2022/05/29 04:21:24;;;;;;;10.40;2.80;;;;;;;;;;5120876;27;20606;-43
2022/05/29 04:23:50;;;;;;;4.47;3.15;;;;;;;;;;5120621;27;20051;-43
2022/05/29 04:26:16;;;;;;;4.78;1.73;;;;;;;;;;5119158;27;20035;-43
2022/05/29 04:28:42;;;;;;;3.70;2.50;;;;;;;;;;5121677;27;20071;-46
2022/05/29 04:31:07;;;;;;;6.20;2.22;;;;;;;;;;5112978;27;20055;-47
2022/05/29 04:33:33;;;;;;;4.68;1.98;;;;;;;;;;5115887;27;20065;-44
2022/05/29 04:35:58;;;;;;;6.10;1.92;;;;;;;;;;5119871;27;20039;-46
2022/05/29 04:38:24;;;;;;;7.50;1.58;;;;;;;;;;5120548;27;20526;-41
2022/05/29 04:40:49;;;;;;;11.95;2.45;;;;;;;;;;5121788;27;20045;-43
2022/05/29 04:43:15;;;;;;;14.43;2.10;;;;;;;;;;5120117;27;20532;-43
2022/05/29 04:45:43;;;;;;;9.88;2.00;;;;;;;;;;5121316;27;20625;-46
2022/05/29 04:48:08;;;;;;;5.72;2.78;;;;;;;;;;5123558;27;20434;-41
2022/05/29 04:50:35;;;;;;;4.68;2.80;;;;;;;;;;5118969;27;20044;-42
2022/05/29 04:53:00;;;;;;;2.83;1.98;;;;;;;;;;5118441;27;20051;-41
2022/05/29 04:55:25;;;;;;;2.78;2.13;;;;;;;;;;5121351;27;20059;-41
2022/05/29 04:57:51;;;;;;;21.98;2.40;;;;;;;;;;5119879;27;20054;-43
2022/05/29 05:00:16;;;;;;;3.25;1.65;;;;;;;;;;5119792;27;20039;-42
2022/05/29 05:02:42;;;;;;;4.35;2.40;;;;;;;;;;5121396;27;20673;-46
2022/05/29 05:05:08;;;;;;;5.68;2.13;;;;;;;;;;5122125;27;20586;-42
2022/05/29 05:07:35;;;;;;;4.10;2.65;;;;;;;;;;5122262;27;20549;-45
2022/05/29 05:10:01;;;;;;;1.38;1.05;;;;;;;;;;5124355;27;20096;-43
2022/05/29 05:12:26;;;;;;;5.18;3.35;;;;;;;;;;5115440;27;20167;-45
2022/05/29 05:14:51;;;;;;;4.18;2.42;;;;;;;;;;5119308;27;20156;-46
2022/05/29 05:17:16;;;;;;;4.15;2.45;;;;;;;;;;5121720;27;20062;-49
2022/05/29 05:19:42;;;;;;;7.55;3.78;;;;;;;;;;5119669;27;20646;-43
2022/05/29 05:22:08;;;;;;;5.85;2.33;;;;;;;;;;5118554;27;20050;-45
2022/05/29 05:24:34;;;;;;;5.45;2.63;;;;;;;;;;5115472;27;20051;-46
2022/05/29 05:27:00;;;;;;;3.53;2.60;;;;;;;;;;5121491;27;20116;-43
2022/05/29 05:29:25;;;;;;;8.60;2.92;;;;;;;;;;5121141;27;20070;-44
2022/05/29 05:31:51;;;;;;;9.50;3.03;;;;;;;;;;5121539;27;20038;-44
2022/05/29 05:34:16;;;;;;;8.98;2.30;;;;;;;;;;5119665;27;20503;-45
2022/05/29 05:36:42;;;;;;;17.00;3.20;;;;;;;;;;5118566;27;20039;-43
2022/05/29 05:39:07;;;;;;;4.07;2.85;;;;;;;;;;5120307;27;20595;-47
2022/05/29 05:41:32;;;;;;;10.52;2.60;;;;;;;;;;5118838;27;20047;-48
2022/05/29 05:43:58;;;;;;;5.40;3.63;;;;;;;;;;5123538;27;20035;-46
2022/05/29 05:46:23;;;;;;;26.00;3.38;;;;;;;;;;5119181;27;20049;-43
2022/05/29 05:48:48;;;;;;;7.20;3.45;;;;;;;;;;5118136;27;20404;-46
2022/05/29 05:51:14;;;;;;;14.82;4.32;;;;;;;;;;5120506;27;20411;-49
2022/05/29 05:53:40;;;;;;;14.20;4.85;;;;;;;;;;5118925;27;20047;-46
2022/05/29 05:56:06;;;;;;;5.53;2.85;;;;;;;;;;5116321;27;20047;-46
2022/05/29 05:58:32;;;;;;;4.28;3.33;;;;;;;;;;5121970;27;20054;-42
2022/05/29 06:00:57;;;;;;;6.35;2.90;;;;;;;;;;5116827;27;20055;-44
2022/05/29 06:03:22;;;;;;;8.88;2.38;;;;;;;;;;5117263;27;20055;-41
2022/05/29 06:05:48;;;;;;;9.20;4.18;;;;;;;;;;5118525;27;20502;-45
2022/05/29 06:08:14;;;;;;;11.82;4.20;;;;;;;;;;5113678;27;20722;-44
2022/05/29 06:10:39;;;;;;;4.80;2.83;;;;;;;;;;5106952;27;20047;-47
2022/05/29 06:13:05;;;;;;;11.73;3.83;;;;;;;;;;5111194;27;20051;-47
2022/05/29 06:15:31;;;;;;;8.02;2.95;;;;;;;;;;5110396;27;20143;-43
2022/05/29 06:17:56;;;;;;;6.15;2.65;;;;;;;;;;5117409;27;20096;-45
2022/05/29 06:20:21;;;;;;;12.40;4.57;;;;;;;;;;5116929;27;20054;-41
2022/05/29 06:22:47;;;;;;;21.85;4.05;;;;;;;;;;5117407;27;20035;-47
2022/05/29 06:25:12;;;;;;;7.25;4.57;;;;;;;;;;5115617;27;20496;-47
2022/05/29 06:27:39;;;;;;;4.40;3.28;;;;;;;;;;5112086;27;20035;-44
2022/05/29 06:30:07;;;;;;;13.52;5.07;;;;;;;;;;5116995;27;20523;-44
2022/05/29 06:32:32;;;;;;;7.30;2.45;;;;;;;;;;5111047;27;20101;-44
2022/05/29 06:34:59;;;;;;;24.88;4.43;;;;;;;;;;5108991;27;20486;-41
2022/05/29 06:37:24;;;;;;;5.18;2.38;;;;;;;;;;5112583;27;20066;-45
2022/05/29 06:39:49;;;;;;;3.22;1.98;;;;;;;;;;5115938;27;20031;-41
2022/05/29 06:42:15;;;;;;;2.85;1.42;;;;;;;;;;5117524;27;20052;-43
2022/05/29 06:44:41;;;;;;;2.53;1.70;;;;;;;;;;5116866;27;20076;-41
2022/05/29 06:47:10;;;;;;;3.45;1.48;;;;;;;;;;5114258;27;20107;-44
2022/05/29 06:49:36;;;;;;;1.75;1.08;;;;;;;;;;5107496;27;20153;-42
2022/05/29 06:52:06;;;;;;;5.15;1.15;;;;;;;;;;5114195;27;20494;-42
2022/05/29 06:54:31;;;;;;;4.32;1.60;;;;;;;;;;5111427;27;20645;-42
2022/05/29 06:56:57;;;;;;;20.30;3.92;;;;;;;;;;5107512;27;20123;-43
2022/05/29 06:59:22;;;;;;;2.25;1.00;;;;;;;;;;5111203;27;20059;-46
2022/05/29 07:07:16;;;;;;;4.43;1.35;;;;;;;;;;5119670;27;20411;-47
2022/05/29 07:09:41;;;;;;;20.42;1.80;;;;;;;;;;5118507;27;20047;-44
2022/05/29 07:12:11;;;;;;;6.22;1.52;;;;;;;;;;5119033;27;20050;-43
2022/05/29 07:14:38;;;;;;;8.27;2.50;;;;;;;;;;5113644;27;20046;-48
2022/05/29 07:17:04;;;;;;;2.20;1.05;;;;;;;;;;5120558;27;20099;-44
2022/05/29 07:19:29;;;;;;;6.70;1.63;;;;;;;;;;5118462;27;20047;-46
2022/05/29 07:21:56;;;;;;;1.80;0.88;;;;;;;;;;5117315;27;20630;-44
2022/05/29 07:24:22;;;;;;;7.13;1.85;;;;;;;;;;5115726;27;20055;-45
2022/05/29 07:26:47;;;;;;;2.78;1.08;;;;;;;;;;5117572;28;20694;-68
2022/05/29 07:29:12;;;;;;;3.30;1.58;;;;;;;;;;5120338;27;20047;-68
2022/05/29 07:31:38;;;;;;;3.95;1.50;;;;;;;;;;5111853;27;20048;-65
2022/05/29 07:34:03;;;;;;;6.65;1.40;;;;;;;;;;5114330;28;20432;-70
2022/05/29 07:36:28;;;;;;;3.53;1.70;;;;;;;;;;5119924;27;20043;-68
2022/05/29 07:38:54;;;;;;;13.45;1.58;;;;;;;;;;5106883;28;20043;-66
2022/05/29 07:44:03;;;;;;;4.55;1.80;;;;;;;;;;5114916;27;20084;-57
2022/05/29 07:46:29;;;;;;;5.10;1.67;;;;;;;;;;5116215;27;20052;-65
2022/05/29 07:48:54;;;;;;;10.65;1.50;;;;;;;;;;5125392;27;20043;-62
2022/05/29 07:51:20;;;;;;;3.90;1.60;;;;;;;;;;5121888;27;20130;-66
2022/05/29 07:53:45;;;;;;;2.17;1.55;;;;;;;;;;5124734;27;20035;-66
2022/05/29 07:56:11;;;;;;;1.67;0.77;;;;;;;;;;5119798;27;20123;-68
2022/05/29 07:58:38;;;;;;;2.42;0.98;;;;;;;;;;5123025;27;20073;-71
2022/05/29 08:01:04;;;;;;;12.77;1.25;;;;;;;;;;5122612;27;20374;-70
2022/05/29 08:03:29;;;;;;;1.35;0.60;;;;;;;;;;5122176;27;20504;-63
2022/05/29 08:05:55;;;;;;;2.05;1.27;;;;;;;;;;5113879;27;20512;-61
2022/05/29 08:08:21;;;;;;;5.40;1.77;;;;;;;;;;5120110;27;20043;-64
2022/05/29 08:10:46;;;;;;;6.68;1.15;;;;;;;;;;5120722;27;20047;-43
2022/05/29 08:13:12;;;;;;;1.83;1.10;;;;;;;;;;5119348;27;20032;-54
2022/05/29 08:15:37;;;;;;;6.30;1.73;;;;;;;;;;5125131;27;20535;-53
2022/05/29 08:18:03;;;;;;;2.60;1.10;;;;;;;;;;5121299;27;20511;-49
2022/05/29 08:20:29;;;;;;;2.30;1.38;;;;;;;;;;5120156;27;20039;-57
2022/05/29 08:22:54;;;;;;;3.65;1.77;;;;;;;;;;5121244;27;20083;-47
2022/05/29 08:30:51;;;;;;;3.78;1.92;;;;;;;;;;5118442;27;20054;-53
2022/05/29 08:33:17;;;;;;;2.15;1.23;;;;;;;;;;5120081;27;20097;-60
2022/05/29 08:35:44;;;;;;;14.98;1.55;;;;;;;;;;5121793;27;20104;-53
2022/05/29 08:38:10;;;;;;;1.83;1.13;;;;;;;;;;5102669;27;20789;-59
2022/05/29 08:40:39;;;;;;;4.25;0.98;;;;;;;;;;5116745;27;20048;-60
2022/05/29 08:43:07;;;;;;;4.72;1.55;;;;;;;;;;5123085;27;20039;-60
2022/05/29 08:45:37;;;;;;;1.30;0.90;;;;;;;;;;5122768;27;20031;-60
2022/05/29 08:48:03;;;;;;;2.10;0.98;;;;;;;;;;5106893;27;20449;-60
2022/05/29 08:50:35;;;;;;;2.50;0.88;;;;;;;;;;5119967;27;20043;-60
2022/05/29 08:53:01;;;;;;;1.55;1.05;;;;;;;;;;5117314;27;20043;-60
2022/05/29 08:55:40;;;;;;;3.60;2.05;;;;;;;;;;5113484;27;20044;-59
2022/05/29 08:58:13;;;;;;;4.22;2.40;;;;;;;;;;5119046;27;20127;-60
2022/05/29 09:00:39;;;;;;;2.55;1.08;;;;;;;;;;5121148;27;20065;-59
2022/05/29 09:03:23;;;;;;;2.55;1.23;;;;;;;;;;5118608;27;20492;-59
2022/05/29 09:06:05;;;;;;;1.50;0.80;;;;;;;;;;5119671;27;20582;-60
2022/05/29 09:08:33;;;;;;;2.38;1.05;;;;;;;;;;5111762;27;20044;-60
2022/05/29 09:11:01;;;;;;;2.03;1.10;;;;;;;;;;5120546;27;20023;-59
2022/05/29 09:13:29;;;;;;;2.67;1.08;;;;;;;;;;5111228;27;20054;-64
2022/05/29 09:15:58;;;;;;;2.85;1.08;;;;;;;;;;5115880;27;20031;-59
2022/05/29 09:18:47;;;;;;;1.67;1.25;;;;;;;;;;5117101;27;20134;-58
2022/05/29 09:21:15;;;;;;;5.90;1.65;;;;;;;;;;5117909;27;20048;-58
2022/05/29 09:23:44;;;;;;;7.95;2.90;;;;;;;;;;5115413;27;20046;-57
2022/05/29 09:26:13;;;;;;;2.50;1.08;;;;;;;;;;5108309;27;20066;-57
2022/05/29 09:28:40;;;;;;;0.98;0.73;;;;;;;;;;5118778;27;20118;-58
2022/05/29 09:31:11;;;;;;;5.18;1.90;;;;;;;;;;5117730;27;20047;-57
2022/05/29 09:33:37;;;;;;;5.78;1.35;;;;;;;;;;5116262;27;20054;-57
2022/05/29 09:36:09;;;;;;;1.60;1.30;;;;;;;;;;5123711;27;20043;-57
2022/05/29 09:38:39;;;;;;;3.88;1.60;;;;;;;;;;5120770;27;20134;-57
2022/05/29 09:41:09;;;;;;;2.80;1.13;;;;;;;;;;5121712;27;20644;-57
2022/05/29 09:43:34;;;;;;;9.38;1.83;;;;;;;;;;5120985;27;20163;-57
2022/05/29 09:46:20;;;;;;;2.33;1.23;;;;;;;;;;5120024;27;20122;-58
2022/05/29 09:51:42;;;;;;;1.73;1.13;;;;;;;;;;5121011;27;20129;-58
2022/05/29 09:54:08;;;;;;;4.35;1.48;;;;;;;;;;5106720;27;20079;-58
2022/05/29 09:56:34;;;;;;;14.38;2.22;;;;;;;;;;5110855;27;20043;-58
2022/05/29 09:59:04;;;;;;;2.70;1.17;;;;;;;;;;5108919;27;20043;-58
2022/05/29 10:01:38;;;;;;;2.65;1.33;;;;;;;;;;5114642;27;20046;-58
2022/05/29 10:04:05;;;;;;;1.48;0.65;;;;;;;;;;5116081;27;20562;-58
2022/05/29 10:06:42;;;;;;;1.80;0.63;;;;;;;;;;5111972;27;20054;-58
2022/05/29 10:09:10;;;;;;;1.52;1.02;;;;;;;;;;5111539;27;20051;-59
2022/05/29 10:11:36;;;;;;;2.40;1.85;;;;;;;;;;5115756;27;20539;-61
2022/05/29 10:14:20;;;;;;;1.65;0.90;;;;;;;;;;5119331;27;20043;-61
2022/05/29 10:16:47;;;;;;;2.95;1.45;;;;;;;;;;5109900;27;20804;-61
2022/05/29 10:19:16;;;;;;;4.75;1.77;;;;;;;;;;5113715;27;20108;-61
2022/05/29 10:21:46;;;;;;;3.67;1.23;;;;;;;;;;5098877;27;20048;-61
2022/05/29 10:24:23;;;;;;;2.80;1.77;;;;;;;;;;5115594;27;20039;-61
2022/05/29 10:26:59;;;;;;;2.35;1.95;;;;;;;;;;5115549;27;20444;-60
2022/05/29 10:29:28;;;;;;;1.95;1.52;;;;;;;;;;5109368;27;20035;-61
2022/05/29 10:31:54;;;;;;;2.80;1.63;;;;;;;;;;5112681;27;20043;-62
2022/05/29 10:34:25;;;;;;;49.15;6.07;;;;;;;;;;5116296;27;20043;-61
2022/05/29 10:36:50;;;;;;;5.68;1.42;;;;;;;;;;5114952;27;20045;-61
2022/05/29 10:39:19;;;;;;;2.10;1.42;;;;;;;;;;5113488;27;20043;-61
2022/05/29 10:41:44;;;;;;;5.72;1.63;;;;;;;;;;5115769;27;20051;-62
2022/05/29 10:44:11;;;;;;;3.42;1.23;;;;;;;;;;5117936;27;20092;-61
2022/05/29 10:46:44;;;;;;;3.13;2.38;;;;;;;;;;5107068;27;20092;-61
2022/05/29 10:49:34;;;;;;;6.90;1.25;;;;;;;;;;5116321;27;20023;-61
2022/05/29 10:52:14;;;;;;;6.43;1.13;;;;;;;;;;5111329;27;20071;-61
2022/05/29 10:54:59;;;;;;;0.95;0.52;;;;;;;;;;5112088;27;20090;-61
2022/05/29 10:57:34;;;;;;;0.52;0.43;;;;;;;;;;5098363;27;20115;-62
2022/05/29 11:00:02;;;;;;;1.85;0.93;;;;;;;;;;5115500;27;20134;-62
2022/05/29 11:05:17;;;;;;;3.22;1.02;;;;;;;;;;5115104;27;20050;-61
2022/05/29 11:07:49;;;;;;;0.95;0.50;;;;;;;;;;5099348;27;20046;-61
2022/05/29 11:10:17;;;;;;;1.80;0.60;;;;;;;;;;5107052;27;20515;-61
2022/05/29 11:12:50;;;;;;;1.88;0.93;;;;;;;;;;5117256;27;20102;-61
2022/05/29 11:15:25;;;;;;;9.50;1.67;;;;;;;;;;5119492;27;20043;-61
2022/05/29 11:17:52;;;;;;;2.67;1.27;;;;;;;;;;5115021;27;20162;-61
2022/05/29 11:20:20;;;;;;;2.45;0.93;;;;;;;;;;5117718;27;20114;-61
2022/05/29 11:22:54;;;;;;;1.45;0.75;;;;;;;;;;5115627;27;20050;-61
2022/05/29 11:25:40;;;;;;;2.05;0.93;;;;;;;;;;5111744;27;20146;-62
2022/05/29 11:28:24;;;;;;;2.03;1.25;;;;;;;;;;5075181;28;20032;-62
2022/05/29 11:31:13;;;;;;;5.15;1.48;;;;;;;;;;5111758;28;20115;-61
2022/05/29 11:33:50;;;;;;;1.65;1.10;;;;;;;;;;5101843;27;20126;-59
2022/05/29 11:36:30;;;;;;;2.53;1.23;;;;;;;;;;5108003;28;20050;-59
2022/05/29 11:39:18;;;;;;;1.45;0.77;;;;;;;;;;5110768;27;20065;-56
2022/05/29 11:41:47;;;;;;;1.95;0.90;;;;;;;;;;5112489;27;20408;-58
2022/05/29 11:44:25;;;;;;;2.53;1.48;;;;;;;;;;5109979;28;20111;-59
2022/05/29 11:52:47;;;;;;;9.63;1.90;;;;;;;;;;5113785;28;21047;-59
2022/05/29 11:55:17;;;;;;;1.80;0.90;;;;;;;;;;5111998;28;20046;-58
2022/05/29 11:57:42;;;;;;;3.33;0.70;;;;;;;;;;5115351;28;20134;-57
2022/05/29 12:00:18;;;;;;;2.95;1.13;;;;;;;;;;5114714;28;20162;-60
2022/05/29 12:02:52;;;;;;;2.83;1.08;;;;;;;;;;5110866;28;20043;-59
2022/05/29 12:05:30;;;;;;;2.45;0.88;;;;;;;;;;5103408;27;20031;-59
2022/05/29 12:07:58;;;;;;;2.83;1.00;;;;;;;;;;5108753;28;20051;-59
2022/05/29 12:10:26;;;;;;;2.17;1.17;;;;;;;;;;5103691;28;20047;-59
2022/05/29 12:13:12;;;;;;;0.88;0.38;;;;;;;;;;5101642;27;20114;-58
2022/05/29 12:15:37;;;;;;;1.88;0.98;;;;;;;;;;5105842;28;20068;-59
2022/05/29 12:18:04;;;;;;;1.75;0.90;;;;;;;;;;5102574;27;20043;-59
2022/05/29 12:20:34;;;;;;;3.03;1.17;;;;;;;;;;5109792;28;20078;-59
2022/05/29 12:23:02;;;;;;;3.72;1.20;;;;;;;;;;5107466;28;20733;-59
2022/05/29 12:25:39;;;;;;;1.48;1.02;;;;;;;;;;5111898;28;20046;-59
2022/05/29 12:28:13;;;;;;;3.78;1.50;;;;;;;;;;5112347;28;20412;-59
2022/05/29 12:30:40;;;;;;;3.95;2.25;;;;;;;;;;5101652;27;20044;-59
2022/05/29 12:33:13;;;;;;;0.90;0.47;;;;;;;;;;5111006;27;20043;-59
2022/05/29 12:35:46;;;;;;;4.10;1.58;;;;;;;;;;5116318;27;20073;-60
2022/05/29 12:38:11;;;;;;;3.65;1.10;;;;;;;;;;5119327;27;20085;-60
2022/05/29 12:40:55;;;;;;;2.45;1.25;;;;;;;;;;5099642;27;20055;-59
2022/05/29 12:43:39;;;;;;;3.13;0.77;;;;;;;;;;5121358;27;20347;-60
2022/05/29 12:46:04;;;;;;;3.42;1.77;;;;;;;;;;5117093;27;20472;-60
2022/05/29 12:48:43;;;;;;;2.10;1.23;;;;;;;;;;5121812;27;20495;-60
2022/05/29 12:51:20;;;;;;;2.67;0.73;;;;;;;;;;5118061;27;20043;-59
2022/05/29 12:54:05;;;;;;;0.98;0.50;;;;;;;;;;5118990;27;20043;-59
2022/05/29 12:56:57;;;;;;;1.88;0.88;;;;;;;;;;5118824;27;20051;-60
2022/05/29 12:59:34;;;;;;;1.90;0.98;;;;;;;;;;5094488;27;20036;-60
2022/05/29 13:02:05;;;;;;;3.15;1.77;;;;;;;;;;5114216;27;20100;-59
2022/05/29 13:04:46;;;;;;;4.47;0.90;;;;;;;;;;5114883;27;20118;-60
2022/05/29 13:07:18;;;;;;;1.48;0.52;;;;;;;;;;5118077;27;20057;-60
2022/05/29 13:10:02;;;;;;;1.13;0.73;;;;;;;;;;5117116;27;20054;-60
2022/05/29 13:12:29;;;;;;;2.42;1.52;;;;;;;;;;5112934;27;20039;-60
2022/05/29 13:15:06;;;;;;;2.22;1.38;;;;;;;;;;5107173;27;20119;-60
2022/05/29 13:17:32;;;;;;;1.88;0.77;;;;;;;;;;5122485;27;20046;-60
2022/05/29 13:20:01;;;;;;;2.35;0.60;;;;;;;;;;5116654;27;20038;-60
2022/05/29 13:22:58;;;;;;;1.23;0.70;;;;;;;;;;5120361;27;20178;-60
2022/05/29 13:25:28;;;;;;;1.58;0.95;;;;;;;;;;5081408;27;20051;-60
2022/05/29 13:27:54;;;;;;;4.55;0.85;;;;;;;;;;5121407;27;20951;-60
2022/05/29 13:30:41;;;;;;;4.70;0.95;;;;;;;;;;5120311;27;20044;-60
2022/05/29 13:33:25;;;;;;;6.93;1.35;;;;;;;;;;5118317;27;20507;-60
2022/05/29 13:35:50;;;;;;;2.53;0.80;;;;;;;;;;5112282;27;20070;-59
2022/05/29 13:38:34;;;;;;;5.43;0.98;;;;;;;;;;5118546;27;20081;-59
2022/05/29 13:41:04;;;;;;;5.30;1.52;;;;;;;;;;5121744;27;20126;-59
2022/05/29 13:43:29;;;;;;;1.13;0.83;;;;;;;;;;5118820;27;20423;-59
2022/05/29 13:45:56;;;;;;;3.30;0.60;;;;;;;;;;5120567;27;20142;-58
2022/05/29 13:48:25;;;;;;;1.55;0.90;;;;;;;;;;5116614;27;20057;-58
2022/05/29 13:50:51;;;;;;;1.70;0.88;;;;;;;;;;5103129;27;20131;-59
2022/05/29 13:53:35;;;;;;;0.85;0.50;;;;;;;;;;5119109;27;20138;-59
2022/05/29 13:56:03;;;;;;;6.57;0.77;;;;;;;;;;5112487;27;20062;-59
2022/05/29 14:04:29;;;;;;;1.48;0.50;;;;;;;;;;5113079;27;20062;-59
2022/05/29 14:07:11;;;;;;;0.80;0.65;;;;;;;;;;5119316;27;20072;-59
2022/05/29 14:09:36;;;;;;;8.18;1.30;;;;;;;;;;5121107;27;20035;-59
2022/05/29 14:12:17;;;;;;;5.20;0.73;;;;;;;;;;5117585;27;20054;-58
2022/05/29 14:14:48;;;;;;;1.88;1.33;;;;;;;;;;5117240;27;20543;-59
2022/05/29 14:17:13;;;;;;;8.50;1.45;;;;;;;;;;5114302;27;20067;-59
2022/05/29 14:20:05;;;;;;;3.33;1.02;;;;;;;;;;5113729;27;20539;-58
2022/05/29 14:22:49;;;;;;;1.42;0.90;;;;;;;;;;5093694;27;20074;-58
2022/05/29 14:25:26;;;;;;;0.75;0.60;;;;;;;;;;5117227;27;20138;-58
2022/05/29 14:28:11;;;;;;;1.30;0.88;;;;;;;;;;5117325;27;20040;-58
2022/05/29 14:30:46;;;;;;;1.00;0.73;;;;;;;;;;5102461;27;20082;-59
2022/05/29 14:33:17;;;;;;;1.77;0.57;;;;;;;;;;5120813;27;20066;-59
2022/05/29 14:36:09;;;;;;;6.75;1.48;;;;;;;;;;5117030;27;20046;-58
2022/05/29 14:38:43;;;;;;;2.85;1.38;;;;;;;;;;5112678;27;20505;-59
2022/05/29 14:41:29;;;;;;;10.25;1.10;;;;;;;;;;5119592;27;20705;-59
2022/05/29 14:43:59;;;;;;;2.45;0.90;;;;;;;;;;5117617;27;20131;-58
2022/05/29 14:49:19;;;;;;;4.32;1.27;;;;;;;;;;5117488;27;20522;-59
2022/05/29 14:51:47;;;;;;;2.00;1.10;;;;;;;;;;5119821;27;20051;-59
2022/05/29 14:54:16;;;;;;;1.27;0.85;;;;;;;;;;5116184;27;20047;-58
2022/05/29 14:56:51;;;;;;;1.15;0.77;;;;;;;;;;5109343;27;20508;-59
2022/05/29 14:59:21;;;;;;;3.20;1.05;;;;;;;;;;5110205;27;20047;-59
2022/05/29 15:01:49;;;;;;;1.67;0.95;;;;;;;;;;5108665;27;20051;-59
2022/05/29 15:04:16;;;;;;;2.28;0.95;;;;;;;;;;5111393;27;20043;-59
2022/05/29 15:12:28;;;;;;;4.43;1.45;;;;;;;;;;5116853;27;20054;-59
2022/05/29 15:15:12;;;;;;;2.83;1.23;;;;;;;;;;5110145;27;20055;-59
2022/05/29 15:17:37;;;;;;;3.50;0.98;;;;;;;;;;5112529;27;20107;-59
2022/05/29 15:24:08;;;;;;;2.90;1.58;;;;;;;;;;5109592;27;20047;-59
2022/05/29 15:25:55;;;;;;;;;;;;;;;;;;5043741;28;20053;-59
2022/05/29 15:28:21;;;;;;;1.42;0.57;;;;;;;;;;5103008;28;19980;-59
2022/05/29 15:30:47;;;;;;;1.95;1.05;;;;;;;;;;5119018;28;20473;-59
2022/05/29 15:33:12;;;;;;;1.98;0.82;;;;;;;;;;5121621;28;20059;-59
2022/05/29 15:35:38;;;;;;;2.53;1.00;;;;;;;;;;5117954;28;20055;-59
2022/05/29 15:38:21;;;;;;;6.85;1.85;;;;;;;;;;5111315;27;20071;-59
2022/05/29 15:40:52;;;;;;;8.98;1.65;;;;;;;;;;5115388;28;20365;-58
2022/05/29 15:43:17;;;;;;;;;;;;;;;;;;5119073;28;20093;-59
2022/05/29 15:45:47;;;;;;;1.60;0.75;;;;;;;;;;5109826;28;20372;-61
2022/05/29 15:48:32;;;;;;;3.78;1.63;;;;;;;;;;5112872;28;20042;-59